Littleton, CO (80128)

10:50 AM MST on March 01, 2017 (GMT -0700)
Chatfield Heights | | Change Station

Elev 5551 ft 39.56 °N, 105.07 °W | Updated 8 seconds ago

Clear
Clear
41.5 °F
Feels Like 42 °F
N
2.9
Wind Variable Wind from East
Gusts 3.0 mph

Today
High -- | Low -- °F
--% Chance of Precip.
Yesterday
High -- | Low -- °F
Precip. -- in
Pressure 30.28 in
Visibility 10.0 miles
Clouds Few 8000 ft
Few 20000 ft
Windchill 42 °F
Dew Point 7 °F
Humidity 24%
Rainfall 0.00 in
Snow Depth Not available.
6:32 AM 5:52 PM
Waxing Crescent, 12% visible
METAR KAPA 011653Z 13006KT 10SM FEW080 FEW200 00/M18 A3017 RMK AO2 SLP252 T00001178
Pressure 30.28 in
Visibility 10.0 miles
Clouds Few 8000 ft
Few 20000 ft
Windchill 42 °F
Dew Point 7 °F
Humidity 24%
Rainfall 0.00 in
Snow Depth Not available.
6:32 AM 5:52 PM
Waxing Crescent, 12% visible
METAR KAPA 011653Z 13006KT 10SM FEW080 FEW200 00/M18 A3017 RMK AO2 SLP252 T00001178

Get Your Daily Forecast Email!

Thanks for signing up!

Be on the lookout for a verification email in your inbox.

You'll start receiving the daily forecast at 8 AM.

×

10-Day Weather Forecast

Almanac

Astronomy

Mar. 01, 2017 Rise Set
Actual Time
Civil Twilight
Nautical Twilight
Astronomical Twilight
Moon
Length of Visible Light
Length of Day
Tomorrow will be .
, % of the Moon is Illuminated

Today's Extremes

State Highs State Lows

Community

WunderPhotos

Upload Photos

1,962,540 photos uploaded!

WunderBlog® & News

Nearby

Air Quality

  Air Quality AQ Index Pollutant
Not available.

Snow Depth

Station Depth Elevation

Earthquake Activity

City Distance Mag. Time & Date
Minimum magnitude displayed is 2.5.

Coastal Water Temperatures

Place Temperature

Stations

Nearby Weather Stations

Station Location Temp. Windchill Dew Point Humidity Wind Precip. Elev Updated Type
                   

Watches & Warnings

There are currently no watches in effect.